Time;durP1;ratioP1;P1;durP2;ratioP2;P2;SDS_P1;SDS_P2;PMS_P1;PMS_P2;Temp;Humidity;BMP_temperature;BMP_pressure;BME280_temperature;BME280_humidity;BME280_pressure;Samples;Min_cycle;Max_cycle;Signal;HPM_P1;HPM_P2
2021/10/21 00:00:32;;;;;;;15.10;7.82;;;13.00;99.90;;;;;;5048100;28;20098;-79
2021/10/21 00:03:00;;;;;;;24.13;10.43;;;13.00;99.90;;;;;;5032564;28;20076;-79
2021/10/21 00:05:25;;;;;;;23.80;9.65;;;13.00;99.90;;;;;;5047059;28;20057;-79
2021/10/21 00:07:51;;;;;;;22.40;9.38;;;13.00;99.90;;;;;;5049067;28;20056;-77
2021/10/21 00:10:17;;;;;;;15.52;8.25;;;13.00;99.90;;;;;;5049495;28;20091;-77
2021/10/21 00:12:43;;;;;;;19.88;10.80;;;13.00;99.90;;;;;;5049790;28;20104;-77
2021/10/21 00:15:10;;;;;;;24.15;11.73;;;13.00;99.90;;;;;;5052670;28;20410;-76
2021/10/21 00:17:37;;;;;;;24.80;12.57;;;13.00;99.90;;;;;;5053092;28;20090;-76
2021/10/21 00:20:09;;;;;;;25.42;13.68;;;13.00;99.90;;;;;;5052207;28;20056;-75
2021/10/21 00:22:35;;;;;;;24.98;13.70;;;13.00;99.90;;;;;;5052782;28;20040;-75
2021/10/21 00:25:04;;;;;;;25.67;14.20;;;13.10;99.90;;;;;;5034337;28;20069;-76
2021/10/21 00:27:30;;;;;;;21.85;12.85;;;13.10;99.90;;;;;;5052159;28;20047;-76
2021/10/21 00:29:56;;;;;;;24.08;14.52;;;13.00;99.90;;;;;;5052060;28;20072;-76
2021/10/21 00:32:21;;;;;;;26.83;14.68;;;13.10;99.90;;;;;;5052539;28;20040;-75
2021/10/21 00:34:47;;;;;;;25.25;14.13;;;13.10;99.90;;;;;;5035035;28;20040;-76
2021/10/21 00:37:13;;;;;;;20.45;13.55;;;13.10;99.90;;;;;;5051976;28;20102;-76
2021/10/21 00:39:38;;;;;;;28.83;15.40;;;13.10;99.90;;;;;;5035536;28;20503;-74
2021/10/21 00:42:04;;;;;;;21.65;11.75;;;13.10;99.90;;;;;;5034812;28;20040;-75
2021/10/21 00:44:30;;;;;;;21.88;13.13;;;13.10;99.90;;;;;;5052464;28;20049;-75
2021/10/21 00:46:57;;;;;;;18.80;11.35;;;13.10;99.90;;;;;;5049091;28;20040;-75
2021/10/21 00:49:23;;;;;;;20.73;11.52;;;13.10;99.90;;;;;;5035479;28;20036;-75
2021/10/21 00:51:49;;;;;;;17.20;10.70;;;13.10;99.90;;;;;;5050339;28;20036;-75
2021/10/21 00:54:17;;;;;;;19.30;11.13;;;13.10;99.90;;;;;;5078985;28;20402;-75
2021/10/21 00:56:45;;;;;;;31.38;12.65;;;13.10;99.90;;;;;;5049592;28;20053;-75
2021/10/21 00:59:13;;;;;;;24.17;12.82;;;13.10;99.90;;;;;;5050016;28;20097;-75
2021/10/21 01:01:39;;;;;;;21.85;11.60;;;13.10;99.90;;;;;;5034603;28;20418;-75
2021/10/21 01:04:05;;;;;;;20.33;10.95;;;13.10;99.90;;;;;;5031238;28;20052;-75
2021/10/21 01:06:32;;;;;;;75.82;16.73;;;13.10;99.90;;;;;;5052016;28;20072;-75
2021/10/21 01:09:04;;;;;;;22.13;11.98;;;13.10;99.90;;;;;;5050763;28;20146;-75
2021/10/21 01:11:30;;;;;;;27.02;11.38;;;13.10;99.90;;;;;;5035157;28;20048;-74
2021/10/21 01:13:56;;;;;;;35.05;13.13;;;13.10;99.90;;;;;;5049728;28;20094;-75
2021/10/21 01:16:22;;;;;;;19.40;10.65;;;13.10;99.90;;;;;;5051849;28;20071;-75
2021/10/21 01:18:47;;;;;;;27.10;13.82;;;13.00;99.90;;;;;;5034860;28;20037;-74
2021/10/21 01:21:13;;;;;;;19.25;11.30;;;13.00;99.90;;;;;;5049639;28;20124;-74
2021/10/21 01:23:40;;;;;;;18.55;11.13;;;13.00;99.90;;;;;;5034971;28;20041;-74
2021/10/21 01:26:14;;;;;;;20.30;11.45;;;13.00;99.90;;;;;;5047338;28;20040;-74
2021/10/21 01:28:41;;;;;;;18.88;11.18;;;13.00;99.90;;;;;;5050147;28;20136;-74
2021/10/21 01:31:07;;;;;;;22.05;11.57;;;13.00;99.90;;;;;;5076811;28;20037;-74
2021/10/21 01:33:34;;;;;;;18.13;12.30;;;13.00;99.90;;;;;;5033343;28;20505;-74
2021/10/21 01:36:00;;;;;;;19.17;11.63;;;13.00;99.90;;;;;;5051673;28;20064;-74
2021/10/21 01:38:26;;;;;;;17.48;11.55;;;13.00;99.90;;;;;;5051685;28;20162;-74
2021/10/21 01:40:52;;;;;;;17.77;12.00;;;13.00;99.90;;;;;;5034038;28;20147;-75
2021/10/21 01:43:18;;;;;;;17.85;11.00;;;13.00;99.90;;;;;;5050993;28;20051;-76
2021/10/21 01:45:44;;;;;;;13.25;9.73;;;13.00;99.90;;;;;;5035124;28;20057;-75
2021/10/21 01:48:10;;;;;;;16.60;9.57;;;13.00;99.90;;;;;;5032811;28;20071;-76
2021/10/21 01:50:36;;;;;;;17.02;9.68;;;13.00;99.90;;;;;;5050798;28;20483;-75
2021/10/21 01:53:02;;;;;;;10.90;8.45;;;13.00;99.90;;;;;;5034392;28;20037;-75
2021/10/21 01:55:27;;;;;;;10.05;7.18;;;12.90;99.90;;;;;;5050359;28;20447;-75
2021/10/21 01:57:53;;;;;;;12.80;6.85;;;12.90;99.90;;;;;;5050632;28;20072;-75
2021/10/21 02:00:24;;;;;;;15.35;8.00;;;12.90;99.90;;;;;;5031180;28;20044;-75
2021/10/21 02:02:50;;;;;;;11.65;6.93;;;12.90;99.90;;;;;;5050625;28;20584;-75
2021/10/21 02:05:17;;;;;;;11.02;6.85;;;12.90;99.90;;;;;;5067106;28;20051;-75
2021/10/21 02:07:44;;;;;;;10.98;6.93;;;13.00;99.90;;;;;;5051915;28;20072;-76
2021/10/21 02:10:18;;;;;;;11.95;6.45;;;13.00;99.90;;;;;;5051407;28;20067;-75
2021/10/21 02:12:45;;;;;;;9.45;6.05;;;13.00;99.90;;;;;;5034950;28;20400;-75
2021/10/21 02:15:11;;;;;;;9.85;5.90;;;13.00;99.90;;;;;;5038209;28;20510;-75
2021/10/21 02:17:38;;;;;;;9.02;4.85;;;13.00;99.90;;;;;;5042523;28;20077;-74
2021/10/21 02:20:05;;;;;;;10.38;5.20;;;13.00;99.90;;;;;;5051149;28;20056;-75
2021/10/21 02:22:32;;;;;;;7.10;3.90;;;13.00;99.90;;;;;;5048197;28;20064;-75
2021/10/21 02:24:58;;;;;;;8.73;4.65;;;13.00;99.90;;;;;;5015277;28;20075;-74
2021/10/21 02:27:23;;;;;;;9.20;3.78;;;13.00;99.90;;;;;;5051562;28;20056;-75
2021/10/21 02:29:49;;;;;;;7.72;3.10;;;13.10;99.90;;;;;;5032564;28;20045;-73
2021/10/21 02:32:15;;;;;;;6.50;2.67;;;13.20;99.90;;;;;;5027128;28;20040;-74
2021/10/21 02:34:41;;;;;;;2.47;1.10;;;13.10;99.90;;;;;;5050437;28;20050;-73
2021/10/21 02:37:07;;;;;;;3.45;0.52;;;12.90;99.90;;;;;;5033931;28;20052;-74
2021/10/21 02:39:33;;;;;;;3.03;0.90;;;12.60;99.90;;;;;;5048044;28;20055;-76
2021/10/21 02:41:59;;;;;;;2.67;0.80;;;12.40;99.90;;;;;;5015018;28;20041;-75
2021/10/21 02:44:25;;;;;;;3.90;0.75;;;12.20;99.90;;;;;;5015233;28;20083;-74
2021/10/21 02:46:50;;;;;;;3.72;0.70;;;12.00;99.90;;;;;;5019585;28;20075;-75
2021/10/21 02:49:17;;;;;;;3.47;0.75;;;11.90;99.90;;;;;;5045923;28;20049;-75
2021/10/21 02:51:43;;;;;;;3.38;0.70;;;11.90;99.90;;;;;;5034644;28;20043;-76
2021/10/21 02:54:09;;;;;;;4.82;1.00;;;11.80;99.90;;;;;;5034323;28;20033;-75
2021/10/21 02:56:35;;;;;;;3.60;0.90;;;11.80;99.90;;;;;;5050701;28;20465;-76
2021/10/21 02:59:01;;;;;;;4.50;0.75;;;11.70;99.90;;;;;;5050330;28;20125;-77
2021/10/21 03:01:27;;;;;;;2.28;0.80;;;11.70;99.90;;;;;;5049542;28;20048;-75
2021/10/21 03:03:53;;;;;;;5.72;0.90;;;11.60;99.90;;;;;;5027702;28;20056;-75
2021/10/21 03:06:19;;;;;;;3.78;0.77;;;11.60;99.90;;;;;;5045825;28;20048;-76
2021/10/21 03:08:45;;;;;;;8.27;1.25;;;11.60;99.90;;;;;;5051098;28;20087;-74
2021/10/21 03:11:11;;;;;;;5.18;1.50;;;11.70;99.90;;;;;;5033719;28;20052;-76
2021/10/21 03:13:37;;;;;;;5.90;1.13;;;11.60;99.90;;;;;;5051208;28;20052;-75
2021/10/21 03:16:03;;;;;;;5.80;1.63;;;11.60;99.90;;;;;;5051111;28;20036;-76
2021/10/21 03:18:29;;;;;;;6.03;1.10;;;11.60;99.90;;;;;;5051496;28;20560;-75
2021/10/21 03:20:55;;;;;;;5.28;1.42;;;11.50;99.90;;;;;;5033797;28;20048;-74
2021/10/21 03:23:24;;;;;;;8.57;1.45;;;11.60;99.90;;;;;;5050633;28;20683;-76
2021/10/21 03:25:51;;;;;;;5.25;1.13;;;11.60;99.90;;;;;;5068173;28;20056;-76
2021/10/21 03:28:16;;;;;;;6.63;1.35;;;11.60;99.90;;;;;;5050564;28;20391;-74
2021/10/21 03:30:42;;;;;;;4.50;0.93;;;11.60;99.90;;;;;;5050970;28;20052;-75
2021/10/21 03:33:08;;;;;;;6.55;1.35;;;11.70;99.90;;;;;;5050032;28;20045;-76
2021/10/21 03:35:34;;;;;;;6.68;1.20;;;11.60;99.90;;;;;;5051158;28;20077;-75
2021/10/21 03:38:00;;;;;;;8.95;1.30;;;11.70;99.90;;;;;;5050500;28;20446;-75
2021/10/21 03:40:25;;;;;;;5.13;0.80;;;11.70;99.90;;;;;;5066842;28;20072;-76
2021/10/21 03:42:51;;;;;;;2.42;0.73;;;11.60;99.90;;;;;;5033689;28;20900;-74
2021/10/21 03:45:17;;;;;;;7.05;1.70;;;11.60;99.90;;;;;;5032596;28;20155;-74
2021/10/21 03:47:43;;;;;;;5.63;0.82;;;11.60;99.90;;;;;;5049932;28;20049;-74
2021/10/21 03:50:09;;;;;;;3.45;0.80;;;11.60;99.90;;;;;;5033186;28;20037;-75
2021/10/21 03:52:35;;;;;;;4.63;1.00;;;11.60;99.90;;;;;;5033881;28;20084;-75
2021/10/21 03:55:05;;;;;;;5.32;0.95;;;11.60;99.90;;;;;;5050082;28;20047;-75
2021/10/21 03:57:31;;;;;;;2.85;0.80;;;11.70;99.90;;;;;;5050164;28;20052;-77
2021/10/21 03:59:59;;;;;;;5.15;0.70;;;11.60;99.90;;;;;;5020449;28;20064;-74
2021/10/21 04:02:25;;;;;;;6.78;1.10;;;11.60;99.90;;;;;;5063095;28;20130;-76
2021/10/21 04:04:51;;;;;;;3.75;0.85;;;11.60;99.90;;;;;;5032729;28;20051;-75
2021/10/21 04:07:16;;;;;;;5.82;1.42;;;11.60;99.90;;;;;;5066305;28;20139;-75
2021/10/21 04:09:42;;;;;;;6.28;0.80;;;11.70;99.90;;;;;;5067143;28;20055;-75
2021/10/21 04:12:08;;;;;;;5.63;0.68;;;11.60;99.90;;;;;;5049509;28;20131;-74
2021/10/21 04:14:34;;;;;;;7.72;0.75;;;11.60;99.90;;;;;;5054905;28;20123;-76
2021/10/21 04:17:00;;;;;;;4.47;0.80;;;11.60;99.90;;;;;;5046998;28;20527;-75
2021/10/21 04:19:25;;;;;;;5.07;0.63;;;11.50;99.90;;;;;;5045195;28;20049;-75
2021/10/21 04:21:51;;;;;;;5.85;0.80;;;11.40;99.90;;;;;;5031428;28;20040;-75
2021/10/21 04:24:17;;;;;;;4.32;0.90;;;11.30;99.90;;;;;;5048130;28;20058;-74
2021/10/21 04:26:43;;;;;;;4.75;0.88;;;11.30;99.90;;;;;;5048530;28;20476;-74
2021/10/21 04:29:09;;;;;;;8.55;1.70;;;11.30;99.90;;;;;;5048119;28;20127;-75
2021/10/21 04:31:35;;;;;;;7.97;1.20;;;11.30;99.90;;;;;;5045342;28;20044;-74
2021/10/21 04:34:00;;;;;;;8.88;1.55;;;11.30;99.90;;;;;;5030900;28;20491;-74
2021/10/21 04:36:26;;;;;;;10.65;1.83;;;11.20;99.90;;;;;;5048429;28;20051;-77
2021/10/21 04:38:52;;;;;;;11.77;2.47;;;11.20;99.90;;;;;;5032045;28;20079;-75
2021/10/21 04:41:18;;;;;;;8.45;1.83;;;11.20;99.90;;;;;;5030854;28;20040;-74
2021/10/21 04:43:43;;;;;;;5.32;1.70;;;11.10;99.90;;;;;;5047798;28;20568;-74
2021/10/21 04:46:09;;;;;;;6.63;1.48;;;11.10;99.90;;;;;;5047935;28;20041;-75
2021/10/21 04:48:35;;;;;;;8.23;1.38;;;11.10;99.90;;;;;;5047320;28;20091;-75
2021/10/21 04:51:01;;;;;;;3.85;0.73;;;11.00;99.90;;;;;;5047995;28;20090;-74
2021/10/21 04:53:29;;;;;;;4.32;0.52;;;10.90;99.90;;;;;;5031697;28;20403;-74
2021/10/21 04:55:55;;;;;;;2.00;0.65;;;10.80;99.90;;;;;;5043318;28;20052;-75
2021/10/21 04:58:21;;;;;;;2.65;0.65;;;10.70;99.90;;;;;;5046639;28;20057;-76
2021/10/21 05:00:47;;;;;;;2.35;0.50;;;10.60;99.90;;;;;;5050314;28;20068;-75
2021/10/21 05:03:13;;;;;;;3.45;0.52;;;10.40;99.90;;;;;;5033913;28;20044;-76
2021/10/21 05:05:42;;;;;;;1.83;0.63;;;10.40;99.90;;;;;;5035001;28;20038;-75
2021/10/21 05:08:08;;;;;;;5.95;1.00;;;10.40;99.90;;;;;;5051518;28;20170;-76
2021/10/21 05:10:34;;;;;;;9.73;1.50;;;10.30;99.90;;;;;;5034744;28;20036;-75
2021/10/21 05:13:00;;;;;;;6.55;0.98;;;10.30;99.90;;;;;;5051527;28;20518;-75
2021/10/21 05:15:26;;;;;;;5.07;0.80;;;10.30;99.90;;;;;;5051369;28;20071;-73
2021/10/21 05:17:53;;;;;;;4.13;1.08;;;10.30;99.90;;;;;;5052325;28;20070;-79
2021/10/21 05:20:20;;;;;;;5.43;1.13;;;10.30;99.90;;;;;;5051691;28;20044;-75
2021/10/21 05:22:46;;;;;;;5.10;1.20;;;10.30;99.90;;;;;;5034960;28;20037;-77
2021/10/21 05:25:12;;;;;;;5.68;1.15;;;10.30;99.90;;;;;;5051983;28;20533;-76
2021/10/21 05:27:38;;;;;;;10.82;1.17;;;10.30;99.90;;;;;;5035101;28;20072;-75
2021/10/21 05:30:06;;;;;;;4.05;1.00;;;10.30;99.90;;;;;;5034747;28;20526;-73
2021/10/21 05:32:34;;;;;;;7.97;1.15;;;10.20;99.90;;;;;;5045793;28;20083;-75
2021/10/21 05:35:00;;;;;;;10.70;1.42;;;10.20;99.90;;;;;;5049425;28;20064;-75
2021/10/21 05:37:26;;;;;;;5.55;0.77;;;10.10;99.90;;;;;;5051185;28;20084;-76
2021/10/21 05:39:54;;;;;;;4.97;1.20;;;10.10;99.90;;;;;;5039264;28;20144;-76
2021/10/21 05:42:20;;;;;;;5.20;1.00;;;10.10;99.90;;;;;;5049277;28;20105;-76
2021/10/21 05:44:46;;;;;;;5.50;0.70;;;10.00;99.90;;;;;;5047947;28;20045;-75
2021/10/21 05:47:12;;;;;;;5.65;0.95;;;10.00;99.90;;;;;;5050043;28;20043;-75
2021/10/21 05:49:37;;;;;;;5.25;0.85;;;10.00;99.90;;;;;;5034670;28;20409;-78
2021/10/21 05:52:03;;;;;;;11.32;1.30;;;10.00;99.90;;;;;;5016489;28;20097;-76
2021/10/21 05:54:29;;;;;;;3.70;0.90;;;9.90;99.90;;;;;;5050534;28;20041;-76
2021/10/21 05:56:55;;;;;;;10.25;1.60;;;9.90;99.90;;;;;;5047975;28;20049;-76
2021/10/21 05:59:21;;;;;;;4.22;0.90;;;9.90;99.90;;;;;;5063402;28;20119;-76
2021/10/21 06:01:46;;;;;;;5.80;1.10;;;9.90;99.90;;;;;;5014131;28;20040;-75
2021/10/21 06:04:12;;;;;;;11.43;1.42;;;9.80;99.90;;;;;;5032630;28;20681;-76
2021/10/21 06:06:38;;;;;;;5.38;1.00;;;9.80;99.90;;;;;;5011465;28;20045;-75
2021/10/21 06:09:05;;;;;;;6.72;1.15;;;9.80;99.90;;;;;;5038701;28;20522;-75
2021/10/21 06:11:32;;;;;;;7.03;0.90;;;9.80;99.90;;;;;;5047669;28;20487;-73
2021/10/21 06:14:01;;;;;;;4.82;0.90;;;9.80;99.90;;;;;;5042246;28;20059;-73
2021/10/21 06:16:30;;;;;;;11.02;1.33;;;9.70;99.90;;;;;;5032356;28;20574;-73
2021/10/21 06:18:56;;;;;;;10.52;1.52;;;9.70;99.90;;;;;;5050781;28;20084;-73
2021/10/21 06:21:23;;;;;;;7.35;1.30;;;9.70;99.90;;;;;;5032306;28;20262;-73
2021/10/21 06:23:52;;;;;;;7.68;1.52;;;9.70;99.90;;;;;;5034187;28;20040;-72
2021/10/21 06:26:19;;;;;;;7.70;1.20;;;9.70;99.90;;;;;;5049577;28;20044;-73
2021/10/21 06:28:50;;;;;;;7.50;1.27;;;9.70;99.90;;;;;;5033929;28;20063;-73
2021/10/21 06:31:20;;;;;;;6.38;1.35;;;9.70;99.90;;;;;;5031715;28;20036;-73
2021/10/21 06:33:47;;;;;;;10.25;1.00;;;9.70;99.90;;;;;;5050045;28;20083;-73
2021/10/21 06:36:12;;;;;;;10.80;1.48;;;9.70;99.90;;;;;;5031807;28;20064;-73
2021/10/21 06:38:40;;;;;;;10.55;1.73;;;9.70;99.90;;;;;;5048976;28;20079;-73
2021/10/21 06:41:06;;;;;;;10.75;1.40;;;9.70;99.90;;;;;;5049040;28;20044;-73
2021/10/21 06:43:33;;;;;;;12.65;1.92;;;9.80;99.90;;;;;;5049731;28;20059;-73
2021/10/21 06:46:00;;;;;;;14.70;1.88;;;9.80;99.90;;;;;;5034892;28;20066;-73
2021/10/21 06:48:29;;;;;;;13.10;1.65;;;9.90;99.90;;;;;;5052773;28;20115;-73
2021/10/21 06:50:55;;;;;;;9.38;1.83;;;9.90;99.90;;;;;;5033011;28;20131;-72
2021/10/21 06:53:21;;;;;;;9.23;1.80;;;9.90;99.90;;;;;;5053575;28;20446;-73
2021/10/21 06:55:47;;;;;;;11.10;1.70;;;10.00;99.90;;;;;;5024618;28;20672;-72
2021/10/21 06:58:13;;;;;;;11.63;1.98;;;10.00;99.90;;;;;;5029221;28;20041;-72
2021/10/21 07:00:40;;;;;;;14.52;2.38;;;10.00;99.90;;;;;;5029339;28;20045;-73
2021/10/21 07:03:07;;;;;;;10.63;1.90;;;10.00;99.90;;;;;;5011091;28;20037;-73
2021/10/21 07:05:38;;;;;;;11.23;2.03;;;10.10;99.90;;;;;;5041557;28;20110;-75
2021/10/21 07:08:06;;;;;;;15.02;2.22;;;10.10;99.90;;;;;;5027694;28;20036;-75
2021/10/21 07:10:32;;;;;;;13.98;2.45;;;10.10;99.90;;;;;;5010964;28;20040;-72
2021/10/21 07:13:02;;;;;;;18.92;2.90;;;10.20;99.90;;;;;;5028063;28;20071;-73
2021/10/21 07:15:28;;;;;;;20.42;2.60;;;10.20;99.90;;;;;;5027722;28;20037;-73
2021/10/21 07:17:53;;;;;;;16.88;2.65;;;10.20;99.90;;;;;;5011582;28;20051;-75
2021/10/21 07:20:19;;;;;;;17.55;2.63;;;10.30;99.90;;;;;;5044094;28;20059;-74
2021/10/21 07:22:45;;;;;;;16.00;2.22;;;10.30;99.90;;;;;;5041906;28;20153;-74
2021/10/21 07:25:11;;;;;;;13.32;2.30;;;10.30;99.90;;;;;;5028007;28;20116;-73
2021/10/21 07:27:38;;;;;;;16.58;2.88;;;10.30;99.90;;;;;;5030074;28;20300;-74
2021/10/21 07:30:05;;;;;;;14.90;2.25;;;10.30;99.90;;;;;;5029600;28;20048;-73
2021/10/21 07:32:34;;;;;;;15.23;2.22;;;10.40;99.90;;;;;;5046497;28;20045;-73
2021/10/21 07:35:00;;;;;;;11.93;2.67;;;10.40;99.90;;;;;;5029934;28;20045;-74
2021/10/21 07:37:27;;;;;;;11.40;2.35;;;10.40;99.90;;;;;;5029596;28;20041;-74
2021/10/21 07:39:52;;;;;;;12.23;2.47;;;10.40;99.90;;;;;;5028845;28;20049;-74
2021/10/21 07:42:18;;;;;;;13.32;2.20;;;10.40;99.90;;;;;;5012016;28;20040;-74
2021/10/21 07:44:44;;;;;;;11.60;2.25;;;10.40;99.90;;;;;;5012602;28;20500;-73
2021/10/21 07:47:10;;;;;;;10.65;2.10;;;10.40;99.90;;;;;;5045087;28;20133;-74
2021/10/21 07:49:36;;;;;;;12.60;2.67;;;10.40;99.90;;;;;;5055105;28;20048;-74
2021/10/21 07:52:04;;;;;;;11.38;2.50;;;10.40;99.90;;;;;;5044681;28;20045;-74
2021/10/21 07:54:30;;;;;;;14.07;2.38;;;10.40;99.90;;;;;;5044153;28;20048;-74
2021/10/21 07:57:00;;;;;;;9.27;2.50;;;10.40;99.90;;;;;;5044916;28;20059;-74
2021/10/21 07:59:27;;;;;;;12.85;2.38;;;10.40;99.90;;;;;;5028005;28;21809;-73
2021/10/21 08:01:55;;;;;;;14.00;2.75;;;10.40;99.90;;;;;;4995495;28;20715;-73
2021/10/21 08:04:21;;;;;;;17.92;2.83;;;10.40;99.90;;;;;;5011548;28;20037;-74
2021/10/21 08:06:49;;;;;;;13.57;2.65;;;10.30;99.90;;;;;;5045420;28;20047;-74
2021/10/21 08:09:16;;;;;;;15.75;2.42;;;10.40;99.90;;;;;;5028640;28;20039;-74
2021/10/21 08:11:42;;;;;;;18.40;2.35;;;10.40;99.90;;;;;;5045444;28;20041;-75
2021/10/21 08:14:09;;;;;;;12.45;2.30;;;10.40;99.90;;;;;;5027798;28;20127;-73
2021/10/21 08:16:35;;;;;;;16.17;3.05;;;10.40;99.90;;;;;;5012164;28;20036;-73
2021/10/21 08:19:04;;;;;;;14.63;2.40;;;10.40;99.90;;;;;;5028967;28;20053;-73
2021/10/21 08:21:34;;;;;;;13.95;2.40;;;10.40;99.90;;;;;;5045257;28;20033;-73
2021/10/21 08:24:04;;;;;;;14.20;3.08;;;10.40;99.90;;;;;;5044794;28;20052;-74
2021/10/21 08:26:33;;;;;;;12.65;2.00;;;10.50;99.90;;;;;;5028726;28;20114;-73
2021/10/21 08:29:00;;;;;;;10.90;1.83;;;10.50;99.90;;;;;;5012480;28;20076;-73
2021/10/21 08:31:26;;;;;;;16.30;2.47;;;10.50;99.90;;;;;;5011503;28;20053;-73
2021/10/21 08:33:52;;;;;;;10.88;1.80;;;10.50;99.90;;;;;;5046373;28;20056;-73
2021/10/21 08:36:19;;;;;;;11.57;1.40;;;10.50;99.90;;;;;;5048595;28;20048;-73
2021/10/21 08:38:45;;;;;;;11.50;1.67;;;10.50;99.90;;;;;;5032540;28;20102;-74
2021/10/21 08:41:13;;;;;;;12.52;1.67;;;10.40;99.90;;;;;;5048486;28;20496;-74
2021/10/21 08:43:39;;;;;;;16.02;1.80;;;10.40;99.90;;;;;;5032409;28;20072;-73
2021/10/21 08:46:05;;;;;;;11.10;1.50;;;10.30;99.90;;;;;;5032431;28;20709;-73
2021/10/21 08:48:34;;;;;;;11.88;1.60;;;10.30;99.90;;;;;;5048913;28;20061;-74
2021/10/21 08:51:05;;;;;;;7.45;1.45;;;10.30;99.90;;;;;;5032062;28;20052;-73
2021/10/21 08:53:33;;;;;;;9.27;1.77;;;10.30;99.90;;;;;;5048710;28;20048;-73
2021/10/21 08:59:34;;;;;;;10.68;1.58;;;10.40;99.90;;;;;;5143622;27;20461;-74
2021/10/21 09:02:24;;;;;;;10.73;1.85;;;10.40;99.90;;;;;;5094060;27;20435;-73
2021/10/21 09:05:00;;;;;;;10.23;1.80;;;10.40;99.90;;;;;;5111565;27;20051;-74
2021/10/21 09:10:14;;;;;;;14.80;2.10;;;10.50;99.90;;;;;;5125137;27;20439;-74
2021/10/21 09:12:47;;;;;;;11.73;2.10;;;10.50;99.90;;;;;;5111319;27;20104;-74
2021/10/21 09:15:16;;;;;;;8.63;1.42;;;10.50;99.90;;;;;;5108336;27;20047;-74
2021/10/21 09:17:43;;;;;;;13.07;2.78;;;10.50;99.90;;;;;;5127249;27;20047;-74
2021/10/21 09:20:38;;;;;;;11.32;1.80;;;10.50;99.90;;;;;;5109915;27;20046;-74
2021/10/21 09:23:11;;;;;;;7.72;1.60;;;10.60;99.90;;;;;;5109786;27;20054;-73
2021/10/21 09:25:41;;;;;;;9.43;1.60;;;10.50;99.90;;;;;;5123879;27;20517;-75
2021/10/21 09:28:23;;;;;;;10.70;1.53;;;10.60;99.90;;;;;;5109516;27;20370;-74
2021/10/21 09:31:17;;;;;;;10.88;1.42;;;10.60;99.90;;;;;;5109517;27;20651;-74
2021/10/21 09:33:57;;;;;;;10.90;1.80;;;10.60;99.90;;;;;;5122348;27;20059;-74
2021/10/21 09:36:26;;;;;;;11.40;2.30;;;10.70;99.90;;;;;;5109507;27;20042;-74
2021/10/21 09:38:55;;;;;;;7.00;1.70;;;10.70;99.90;;;;;;5126184;27;20078;-74
2021/10/21 09:41:23;;;;;;;11.13;1.63;;;10.80;99.90;;;;;;5125931;27;20569;-74
2021/10/21 09:43:53;;;;;;;13.82;1.75;;;10.90;99.90;;;;;;5107112;27;20043;-74
2021/10/21 09:46:41;;;;;;;7.28;1.20;;;10.80;99.90;;;;;;5125772;27;20034;-75
2021/10/21 09:49:33;;;;;;;7.88;1.10;;;10.80;99.90;;;;;;5109230;27;20099;-76
2021/10/21 09:52:03;;;;;;;7.75;1.15;;;10.80;99.90;;;;;;5124418;27;20541;-76
2021/10/21 09:54:32;;;;;;;6.47;0.90;;;10.70;99.90;;;;;;5123808;27;20107;-73
2021/10/21 09:57:01;;;;;;;7.18;1.00;;;10.60;99.90;;;;;;5108435;27;20396;-74
2021/10/21 09:59:34;;;;;;;5.78;0.73;;;10.50;99.90;;;;;;5103311;28;20387;-74
2021/10/21 10:02:17;;;;;;;6.10;0.85;;;10.40;99.90;;;;;;5106021;28;20122;-74
2021/10/21 10:04:48;;;;;;;6.57;0.73;;;10.30;99.90;;;;;;5120906;28;20057;-74
2021/10/21 10:07:14;;;;;;;4.63;0.60;;;10.20;99.90;;;;;;5122208;28;20053;-72
2021/10/21 10:09:40;;;;;;;6.40;0.90;;;10.10;99.90;;;;;;5081865;28;20044;-74
2021/10/21 10:12:08;;;;;;;5.80;0.70;;;10.10;99.90;;;;;;5108965;28;20079;-74
2021/10/21 10:14:43;;;;;;;10.00;1.00;;;10.00;99.90;;;;;;5074855;28;20463;-73
2021/10/21 10:17:10;;;;;;;6.32;0.93;;;10.00;99.90;;;;;;5106979;28;20075;-74
2021/10/21 10:19:42;;;;;;;7.03;0.80;;;9.90;99.90;;;;;;5104737;28;20036;-76
2021/10/21 10:22:11;;;;;;;5.97;1.08;;;9.80;99.90;;;;;;5091132;28;20124;-74
2021/10/21 10:24:38;;;;;;;6.82;1.10;;;9.80;99.90;;;;;;5090147;28;20035;-74
2021/10/21 10:27:20;;;;;;;4.35;0.70;;;9.70;99.90;;;;;;5091740;28;20051;-74
2021/10/21 10:29:48;;;;;;;10.75;1.00;;;9.80;99.90;;;;;;5108460;28;20122;-72
2021/10/21 10:32:32;;;;;;;7.15;0.70;;;9.70;99.90;;;;;;5105385;28;20051;-74
2021/10/21 10:35:05;;;;;;;5.30;0.82;;;9.70;99.90;;;;;;5091518;28;20062;-74
2021/10/21 10:37:37;;;;;;;5.80;1.00;;;9.60;99.90;;;;;;5107933;28;20108;-74
2021/10/21 10:40:04;;;;;;;6.97;0.60;;;9.60;99.90;;;;;;5107958;28;20096;-73
2021/10/21 10:42:36;;;;;;;8.38;0.98;;;9.50;99.90;;;;;;5074043;28;20036;-75
2021/10/21 10:45:07;;;;;;;7.13;0.80;;;9.50;99.90;;;;;;5108249;28;20063;-76
2021/10/21 10:48:05;;;;;;;10.48;1.20;;;9.50;99.90;;;;;;5090843;28;20050;-74
2021/10/21 10:50:34;;;;;;;5.35;0.90;;;9.50;99.90;;;;;;5043102;28;20048;-75
2021/10/21 10:53:07;;;;;;;7.60;0.70;;;9.50;99.90;;;;;;5091639;28;20075;-75
2021/10/21 10:55:38;;;;;;;5.63;0.75;;;9.50;99.90;;;;;;5073800;28;20075;-75
2021/10/21 10:58:05;;;;;;;8.38;0.88;;;9.50;99.90;;;;;;5091234;28;20048;-74
2021/10/21 11:00:37;;;;;;;6.65;0.73;;;9.50;99.90;;;;;;5104824;28;20039;-75
2021/10/21 11:03:05;;;;;;;4.45;0.57;;;9.50;99.90;;;;;;5091985;28;20039;-75
2021/10/21 11:05:43;;;;;;;5.68;0.95;;;9.50;99.90;;;;;;5089858;28;20038;-75
2021/10/21 11:08:10;;;;;;;11.90;1.00;;;9.50;99.90;;;;;;5091162;28;20047;-75
2021/10/21 11:10:42;;;;;;;7.43;0.82;;;9.50;99.90;;;;;;5108187;28;20402;-77
2021/10/21 11:13:26;;;;;;;7.55;1.17;;;9.50;99.90;;;;;;5091155;28;20040;-76
2021/10/21 11:15:54;;;;;;;8.75;1.35;;;9.60;99.90;;;;;;5107999;28;20074;-76
2021/10/21 11:18:26;;;;;;;6.90;0.88;;;9.60;99.90;;;;;;5107919;28;20586;-76
2021/10/21 11:20:55;;;;;;;6.32;1.33;;;9.70;99.90;;;;;;5090104;28;20055;-76
2021/10/21 11:23:27;;;;;;;6.90;0.95;;;9.70;99.90;;;;;;5088532;28;20043;-76
2021/10/21 11:26:03;;;;;;;10.18;1.95;;;9.70;99.90;;;;;;5106236;28;20188;-76
2021/10/21 11:28:34;;;;;;;10.13;1.50;;;9.80;99.90;;;;;;5107176;28;20047;-76
2021/10/21 11:31:01;;;;;;;10.15;1.40;;;9.90;99.90;;;;;;5090521;28;20375;-76
2021/10/21 11:33:27;;;;;;;10.32;1.92;;;9.80;99.90;;;;;;5106532;28;20043;-76
2021/10/21 11:36:03;;;;;;;7.13;1.20;;;9.80;99.90;;;;;;5090304;28;20050;-76
2021/10/21 11:38:32;;;;;;;7.47;1.60;;;9.90;99.90;;;;;;5090415;28;20071;-76
2021/10/21 11:40:58;;;;;;;11.02;1.35;;;9.80;99.90;;;;;;5073894;28;20070;-76
2021/10/21 11:43:27;;;;;;;9.07;1.65;;;9.80;99.90;;;;;;5106764;28;20042;-77
2021/10/21 11:45:57;;;;;;;10.43;2.08;;;9.80;99.90;;;;;;5089875;28;20044;-76
2021/10/21 11:48:43;;;;;;;11.80;1.85;;;9.70;99.90;;;;;;5089753;28;20051;-77
2021/10/21 11:51:12;;;;;;;17.05;2.08;;;9.70;99.90;;;;;;5089005;28;20043;-76
2021/10/21 11:53:39;;;;;;;9.15;1.50;;;9.70;99.90;;;;;;5089716;28;20036;-76
2021/10/21 11:56:05;;;;;;;15.68;2.13;;;9.70;99.90;;;;;;5086119;28;20055;-76
2021/10/21 11:58:36;;;;;;;15.55;1.98;;;9.60;99.90;;;;;;5087871;28;20052;-76
2021/10/21 12:01:07;;;;;;;19.52;2.40;;;9.60;99.90;;;;;;5088580;28;20039;-77
2021/10/21 12:03:35;;;;;;;12.70;2.10;;;9.60;99.90;;;;;;5104459;28;20394;-76
2021/10/21 12:06:02;;;;;;;13.25;2.10;;;9.60;99.90;;;;;;5103184;28;20055;-75
2021/10/21 12:08:29;;;;;;;16.80;2.13;;;9.60;99.90;;;;;;5106398;28;20039;-76
2021/10/21 12:11:01;;;;;;;14.48;2.10;;;9.50;99.90;;;;;;5106914;28;20040;-76
2021/10/21 12:13:36;;;;;;;12.10;1.60;;;9.50;99.90;;;;;;5106758;28;20134;-77
2021/10/21 12:16:16;;;;;;;10.88;1.88;;;9.40;99.90;;;;;;5088539;28;20383;-77
2021/10/21 12:18:42;;;;;;;12.80;1.85;;;9.40;99.90;;;;;;5106219;28;20092;-76
2021/10/21 12:21:08;;;;;;;12.98;1.60;;;9.30;99.90;;;;;;5072682;28;20051;-75
2021/10/21 12:23:44;;;;;;;15.15;2.63;;;9.30;99.90;;;;;;5089108;28;20043;-74
2021/10/21 12:26:24;;;;;;;12.23;2.17;;;9.30;99.90;;;;;;5105027;28;20043;-77
2021/10/21 12:28:52;;;;;;;12.20;1.85;;;9.30;99.90;;;;;;5089812;28;20613;-76
2021/10/21 12:31:24;;;;;;;8.90;2.00;;;9.30;99.90;;;;;;5073127;28;20039;-75
2021/10/21 12:34:01;;;;;;;10.13;1.60;;;9.30;99.90;;;;;;5089637;28;20130;-75
2021/10/21 12:36:41;;;;;;;12.30;2.13;;;9.30;99.90;;;;;;5088213;28;20489;-77
2021/10/21 12:39:15;;;;;;;9.80;1.80;;;9.30;99.90;;;;;;5105242;28;20489;-75
2021/10/21 12:41:56;;;;;;;12.32;2.10;;;9.40;99.90;;;;;;5106326;28;20544;-76
2021/10/21 12:44:44;;;;;;;6.60;1.40;;;9.40;99.90;;;;;;5090157;28;20051;-76
2021/10/21 12:47:12;;;;;;;12.57;1.92;;;9.30;99.90;;;;;;5089279;28;20031;-76
2021/10/21 12:49:38;;;;;;;8.10;1.60;;;9.30;99.90;;;;;;5089513;28;20048;-76
2021/10/21 12:52:12;;;;;;;6.70;1.10;;;9.40;99.90;;;;;;5088495;28;20142;-76
2021/10/21 12:54:39;;;;;;;11.73;1.73;;;9.30;99.90;;;;;;5071481;28;20510;-74